Time;durP1;ratioP1;P1;durP2;ratioP2;P2;SDS_P1;SDS_P2;PMS_P1;PMS_P2;Temp;Humidity;BMP_temperature;BMP_pressure;BME280_temperature;BME280_humidity;BME280_pressure;Samples;Min_cycle;Max_cycle;Signal;HPM_P1;HPM_P2
2023/12/24 00:04:52;;;;;;;;;;;;;;;7.79;78.15;101598.41;10340481;28;96809;-84
2023/12/24 00:09:56;;;;;;;;;;;;;;;7.73;78.61;101594.97;10339097;28;96616;-84
2023/12/24 00:15:03;;;;;;;;;;;;;;;7.74;78.31;101579.25;10340242;28;96753;-84
2023/12/24 00:20:08;;;;;;;;;;;;;;;7.69;78.14;101582.75;10343434;28;98384;-83
2023/12/24 00:25:12;;;;;;;;;;;;;;;7.66;78.37;101575.81;10379482;28;96849;-84
2023/12/24 00:30:19;;;;;;;;;;;;;;;7.68;78.27;101562.69;10343818;28;96704;-84
2023/12/24 00:35:23;;;;;;;;;;;;;;;7.67;78.18;101571.44;10339844;28;98187;-84
2023/12/24 00:40:28;;;;;;;;;;;;;;;7.70;77.90;101574.88;10339434;28;96689;-84
2023/12/24 00:45:35;;;;;;;;;;;;;;;7.74;77.90;101560.03;10339714;28;96812;-83
2023/12/24 00:50:39;;;;;;;;;;;;;;;7.74;77.93;101558.28;10331317;28;97319;-83
2023/12/24 00:55:43;;;;;;;;;;;;;;;7.76;77.66;101573.97;10334417;22;97024;-83
2023/12/24 01:00:47;;;;;;;;;;;;;;;7.74;78.16;101566.16;10420286;28;96846;-83
2023/12/24 01:05:51;;;;;;;;;;;;;;;7.70;77.86;101560.94;10421628;28;96660;-83
2023/12/24 01:10:54;;;;;;;;;;;;;;;7.66;77.63;101538.25;10421478;28;96811;-83
2023/12/24 01:16:01;;;;;;;;;;;;;;;7.66;77.50;101535.66;10421342;28;96765;-83
2023/12/24 01:21:05;;;;;;;;;;;;;;;7.67;77.82;101545.22;10421216;28;97046;-84
2023/12/24 01:26:10;;;;;;;;;;;;;;;7.63;77.41;101547.00;10421837;28;97007;-84
2023/12/24 01:31:17;;;;;;;;;;;;;;;7.64;77.51;101542.63;10420820;28;96705;-83
2023/12/24 01:36:21;;;;;;;;;;;;;;;7.64;77.78;101534.78;10421218;27;96816;-84
2023/12/24 01:41:25;;;;;;;;;;;;;;;7.58;77.61;101533.06;10420723;28;97280;-84
2023/12/24 01:46:33;;;;;;;;;;;;;;;7.51;77.96;101528.75;10420039;28;96914;-83
2023/12/24 01:51:37;;;;;;;;;;;;;;;7.52;77.89;101521.78;10418899;28;96732;-82
2023/12/24 01:56:41;;;;;;;;;;;;;;;7.50;77.54;101524.41;10419086;28;97296;-83
2023/12/24 02:01:48;;;;;;;;;;;;;;;7.52;77.43;101520.03;10420026;28;97287;-82
2023/12/24 02:06:53;;;;;;;;;;;;;;;7.52;77.36;101509.56;10418785;28;96655;-83
2023/12/24 02:11:59;;;;;;;;;;;;;;;7.51;77.67;101518.28;10419192;28;97389;-84
2023/12/24 02:17:06;;;;;;;;;;;;;;;7.50;77.48;101528.75;10419045;28;97275;-83
2023/12/24 02:22:13;;;;;;;;;;;;;;;7.48;77.50;101533.13;10419142;28;96674;-83
2023/12/24 02:27:23;;;;;;;;;;;;;;;7.46;77.74;101542.78;10419363;28;96697;-84
2023/12/24 02:32:28;;;;;;;;;;;;;;;7.46;77.60;101532.31;10418821;28;97336;-84
2023/12/24 02:37:35;;;;;;;;;;;;;;;7.41;77.48;101536.69;10418847;28;97049;-82
2023/12/24 02:42:39;;;;;;;;;;;;;;;7.43;77.75;101534.91;10417620;28;97096;-83
2023/12/24 02:47:44;;;;;;;;;;;;;;;7.46;77.62;101534.94;10417996;27;96764;-83
2023/12/24 02:52:51;;;;;;;;;;;;;;;7.37;77.84;101514.88;10388948;28;96649;-83
2023/12/24 02:57:56;;;;;;;;;;;;;;;7.41;77.65;101528.81;10376125;28;96724;-83
2023/12/24 03:03:00;;;;;;;;;;;;;;;7.37;77.78;101535.81;10411571;28;97754;-83
2023/12/24 03:08:08;;;;;;;;;;;;;;;7.32;77.79;101521.91;10417986;28;96877;-84
2023/12/24 03:13:13;;;;;;;;;;;;;;;7.31;77.97;101511.44;10417929;28;96643;-83
2023/12/24 03:18:17;;;;;;;;;;;;;;;7.32;77.51;101513.19;10418971;28;97090;-84
2023/12/24 03:23:24;;;;;;;;;;;;;;;7.32;77.83;101505.34;10417727;28;96555;-83
2023/12/24 03:28:29;;;;;;;;;;;;;;;7.29;78.02;101510.56;10416633;28;96810;-83
2023/12/24 03:33:33;;;;;;;;;;;;;;;7.29;77.86;101510.56;10416679;28;96788;-84
2023/12/24 03:38:40;;;;;;;;;;;;;;;7.28;77.98;101516.69;10417576;28;96936;-83
2023/12/24 03:43:44;;;;;;;;;;;;;;;7.31;77.62;101508.81;10417342;28;97470;-83
2023/12/24 03:48:50;;;;;;;;;;;;;;;7.26;77.76;101507.97;10416396;28;96659;-83
2023/12/24 03:53:56;;;;;;;;;;;;;;;7.25;78.08;101501.03;10419230;27;96898;-83
2023/12/24 03:59:00;;;;;;;;;;;;;;;7.27;77.84;101499.28;10416467;28;97509;-83
2023/12/24 04:04:04;;;;;;;;;;;;;;;7.26;78.04;101507.97;10421637;27;98462;-83
2023/12/24 04:09:11;;;;;;;;;;;;;;;7.25;78.26;101501.03;10423610;28;97468;-84
2023/12/24 04:14:16;;;;;;;;;;;;;;;7.24;78.29;101514.97;10423396;28;97046;-84
2023/12/24 04:19:21;;;;;;;;;;;;;;;7.24;78.09;101500.16;10423335;28;96663;-83
2023/12/24 04:24:27;;;;;;;;;;;;;;;7.22;78.27;101509.75;10421852;28;97413;-84
2023/12/24 04:29:32;;;;;;;;;;;;;;;7.20;78.24;101489.72;10422985;28;97346;-84
2023/12/24 04:34:36;;;;;;;;;;;;;;;7.16;78.34;101494.09;10422592;28;96646;-84
2023/12/24 04:39:42;;;;;;;;;;;;;;;7.12;78.33;101492.38;10422525;28;97999;-83
2023/12/24 04:44:46;;;;;;;;;;;;;;;7.13;78.37;101493.25;10422197;28;97363;-83
2023/12/24 04:49:50;;;;;;;;;;;;;;;7.11;78.20;101489.75;10438530;27;96839;-84
2023/12/24 04:54:58;;;;;;;;;;;;;;;7.13;78.14;101493.25;10421680;28;98007;-84
2023/12/24 05:00:05;;;;;;;;;;;;;;;7.13;78.17;101488.00;10421900;28;96809;-84
2023/12/24 05:05:10;;;;;;;;;;;;;;;7.15;78.18;101489.72;10421472;28;97094;-83
2023/12/24 05:10:19;;;;;;;;;;;;;;;7.16;78.33;101490.59;10421668;28;97113;-83
2023/12/24 05:15:26;;;;;;;;;;;;;;;7.09;78.53;101486.28;10419484;27;97338;-84
2023/12/24 05:20:32;;;;;;;;;;;;;;;7.15;77.87;101487.09;10421013;28;96644;-84
2023/12/24 05:25:39;;;;;;;;;;;;;;;7.07;78.19;101465.34;10421128;28;97357;-83
2023/12/24 05:30:43;;;;;;;;;;;;;;;7.04;78.25;101478.47;10421106;28;96688;-84
2023/12/24 05:35:47;;;;;;;;;;;;;;;7.05;78.39;101474.97;10420566;28;98417;-84
2023/12/24 05:40:54;;;;;;;;;;;;;;;7.07;78.17;101473.22;10420483;28;96612;-83
2023/12/24 05:45:58;;;;;;;;;;;;;;;7.08;78.09;101468.84;10419922;28;96775;-84
2023/12/24 05:51:02;;;;;;;;;;;;;;;7.06;78.09;101473.22;10420412;28;97953;-83
2023/12/24 05:56:10;;;;;;;;;;;;;;;7.06;77.68;101475.84;10419740;28;97131;-84
2023/12/24 06:01:14;;;;;;;;;;;;;;;7.07;78.00;101483.69;10420097;28;96704;-84
2023/12/24 06:06:18;;;;;;;;;;;;;;;7.04;77.90;101483.69;10418613;28;96756;-84
2023/12/24 06:11:25;;;;;;;;;;;;;;;7.04;77.83;101488.94;10420195;28;96730;-83
2023/12/24 06:16:29;;;;;;;;;;;;;;;7.03;78.16;101486.31;10419509;28;96915;-83
2023/12/24 06:21:36;;;;;;;;;;;;;;;7.03;77.82;101492.41;10419690;28;96633;-85
2023/12/24 06:26:42;;;;;;;;;;;;;;;7.01;78.47;101499.41;10418744;27;97468;-84
2023/12/24 06:31:46;;;;;;;;;;;;;;;7.01;77.91;101496.78;10419241;28;97438;-84
2023/12/24 06:36:50;;;;;;;;;;;;;;;6.98;78.41;101501.16;10418918;28;96788;-83
2023/12/24 06:41:57;;;;;;;;;;;;;;;6.99;78.09;101503.75;10419080;28;97425;-83
2023/12/24 06:47:01;;;;;;;;;;;;;;;6.99;78.31;101516.00;10418396;28;97510;-84
2023/12/24 06:52:05;;;;;;;;;;;;;;;7.01;77.80;101535.19;10418801;28;97737;-84
2023/12/24 06:57:13;;;;;;;;;;;;;;;6.95;78.11;101520.38;10416761;28;96675;-83
2023/12/24 07:02:17;;;;;;;;;;;;;;;6.96;78.00;101545.66;10418135;28;96903;-84
2023/12/24 07:07:21;;;;;;;;;;;;;;;6.93;78.10;101534.34;10418024;28;97402;-84
2023/12/24 07:12:31;;;;;;;;;;;;;;;6.94;78.49;101546.56;10418217;28;96615;-84
2023/12/24 07:17:35;;;;;;;;;;;;;;;6.91;78.31;101536.06;10417914;28;97597;-84
2023/12/24 07:22:39;;;;;;;;;;;;;;;6.87;78.36;101537.84;10417368;28;97286;-84
2023/12/24 07:27:47;;;;;;;;;;;;;;;6.91;78.49;101541.31;10417887;28;97209;-84
2023/12/24 07:32:52;;;;;;;;;;;;;;;6.91;78.41;101551.78;10418034;28;97414;-84
2023/12/24 07:37:57;;;;;;;;;;;;;;;6.92;78.29;101543.94;10423021;27;97165;-84
2023/12/24 07:43:03;;;;;;;;;;;;;;;6.88;78.35;101543.94;10424557;28;97341;-84
2023/12/24 07:48:08;;;;;;;;;;;;;;;6.86;78.40;101541.34;10422663;28;96704;-84
2023/12/24 07:53:12;;;;;;;;;;;;;;;6.85;78.70;101534.38;10423853;28;96642;-83
2023/12/24 07:58:20;;;;;;;;;;;;;;;6.85;78.61;101541.34;10423654;28;96855;-83
2023/12/24 08:03:24;;;;;;;;;;;;;;;6.85;78.89;101555.31;10423673;28;96666;-84
2023/12/24 08:08:28;;;;;;;;;;;;;;;6.85;78.86;101565.78;10423184;28;97024;-84
2023/12/24 08:13:36;;;;;;;;;;;;;;;6.85;78.72;101560.53;10423133;28;96735;-84
2023/12/24 08:18:41;;;;;;;;;;;;;;;6.89;78.45;101566.63;10423314;28;97214;-83
2023/12/24 08:23:45;;;;;;;;;;;;;;;6.86;78.36;101571.84;10423915;28;97326;-84
2023/12/24 08:28:52;;;;;;;;;;;;;;;6.86;78.68;101561.38;10423018;28;96737;-84
2023/12/24 08:33:56;;;;;;;;;;;;;;;6.91;78.62;101543.94;10422984;28;96936;-83
2023/12/24 08:39:01;;;;;;;;;;;;;;;6.89;78.66;101535.25;10421617;27;97204;-84
2023/12/24 08:44:09;;;;;;;;;;;;;;;6.86;78.84;101541.34;10422585;28;96818;-84
2023/12/24 08:49:13;;;;;;;;;;;;;;;6.92;78.53;101548.31;10421703;27;97028;-84
2023/12/24 08:54:17;;;;;;;;;;;;;;;7.07;77.70;101553.47;10422129;28;96801;-85
2023/12/24 08:59:25;;;;;;;;;;;;;;;7.08;77.88;101552.59;10421762;28;96767;-84
2023/12/24 09:04:29;;;;;;;;;;;;;;;7.12;77.59;101555.19;10421840;28;96637;-85
2023/12/24 09:09:35;;;;;;;;;;;;;;;7.16;77.78;101556.03;10421721;28;96677;-84
2023/12/24 09:14:43;;;;;;;;;;;;;;;7.19;77.45;101541.19;10422184;28;96748;-84
2023/12/24 09:19:47;;;;;;;;;;;;;;;7.21;77.30;101549.03;10421701;28;96771;-84
2023/12/24 09:24:55;;;;;;;;;;;;;;;7.23;77.23;101550.78;10421816;28;96989;-84
2023/12/24 09:30:04;;;;;;;;;;;;;;;7.27;76.88;101554.25;10419707;28;97262;-83
2023/12/24 09:35:09;;;;;;;;;;;;;;;7.37;76.85;101543.69;10420362;28;97495;-83
2023/12/24 09:40:13;;;;;;;;;;;;;;;7.45;76.56;101544.53;10420971;28;97118;-83
2023/12/24 09:45:22;;;;;;;;;;;;;;;7.53;76.41;101533.97;10420838;28;96682;-85
2023/12/24 09:50:30;;;;;;;;;;;;;;;7.69;75.89;101539.13;10419888;28;96927;-84
2023/12/24 09:55:34;;;;;;;;;;;;;;;7.81;75.73;101557.34;10419753;28;97113;-83
2023/12/24 10:00:41;;;;;;;;;;;;;;;7.80;75.39;101552.13;10420030;27;96683;-83
2023/12/24 10:06:01;;;;;;;;;;;;;;;7.87;74.72;101566.94;10420807;28;97245;-84
2023/12/24 10:11:15;;;;;;;;;;;;;;;7.90;75.13;101573.00;10419585;28;97310;-84
2023/12/24 10:16:22;;;;;;;;;;;;;;;7.85;74.67;101577.44;10419079;28;97200;-83
2023/12/24 10:21:27;;;;;;;;;;;;;;;7.87;74.91;101582.66;10418605;28;97593;-84
2023/12/24 10:26:32;;;;;;;;;;;;;;;7.87;74.63;101585.28;10419265;28;96620;-85
2023/12/24 10:31:40;;;;;;;;;;;;;;;7.85;75.03;101587.03;10418789;28;97208;-84
2023/12/24 10:36:45;;;;;;;;;;;;;;;7.78;75.21;101598.44;10454229;27;97241;-84
2023/12/24 10:41:54;;;;;;;;;;;;;;;7.89;75.14;101592.22;10425963;27;96778;-84
2023/12/24 10:47:00;;;;;;;;;;;;;;;7.88;74.56;101597.47;10418945;28;96692;-84
2023/12/24 10:52:04;;;;;;;;;;;;;;;8.03;74.17;101586.88;10419085;28;97324;-84
2023/12/24 10:57:15;;;;;;;;;;;;;;;8.21;73.97;101584.09;10418625;28;96755;-84
2023/12/24 11:02:25;;;;;;;;;;;;;;;8.14;74.51;101577.16;10418118;28;96700;-83
2023/12/24 11:07:48;;;;;;;;;;;;;;;8.19;74.36;101564.88;10417899;28;96908;-84
2023/12/24 11:12:52;;;;;;;;;;;;;;;8.23;73.79;101566.59;10422257;27;96881;-85
2023/12/24 11:18:11;;;;;;;;;;;;;;;8.31;73.65;101549.03;10425634;28;97283;-84
2023/12/24 11:23:18;;;;;;;;;;;;;;;8.42;74.39;101555.06;10425141;28;97007;-84
2023/12/24 11:28:39;;;;;;;;;;;;;;;8.54;73.31;101554.94;10425041;28;96656;-83
2023/12/24 11:33:54;;;;;;;;;;;;;;;8.71;72.92;101552.97;10424491;28;97073;-84
2023/12/24 11:38:58;;;;;;;;;;;;;;;8.94;72.77;101545.72;10424636;28;96812;-85
2023/12/24 11:44:02;;;;;;;;;;;;;;;8.99;72.05;101546.53;10424222;28;96914;-84
2023/12/24 11:49:17;;;;;;;;;;;;;;;8.84;72.41;101535.34;10424523;28;97078;-85
2023/12/24 11:54:22;;;;;;;;;;;;;;;9.01;71.97;101531.63;10423892;28;97323;-83
2023/12/24 11:59:26;;;;;;;;;;;;;;;9.05;71.89;101525.44;10423834;28;98317;-85
2023/12/24 12:04:33;;;;;;;;;;;;;;;9.17;71.41;101516.53;10422634;28;96670;-85
2023/12/24 12:09:41;;;;;;;;;;;;;;;8.88;71.16;101518.66;10423418;28;97345;-83
2023/12/24 12:14:45;;;;;;;;;;;;;;;8.87;71.58;101502.06;10423787;28;97393;-84
2023/12/24 12:19:52;;;;;;;;;;;;;;;8.86;71.13;101488.97;10423073;28;96776;-83
2023/12/24 12:24:57;;;;;;;;;;;;;;;8.92;72.07;101474.00;10394930;28;97221;-84
2023/12/24 12:30:01;;;;;;;;;;;;;;;9.06;71.36;101463.28;10423271;28;97553;-84
2023/12/24 12:35:10;;;;;;;;;;;;;;;8.99;71.20;101457.28;10422813;28;96615;-85
2023/12/24 12:40:14;;;;;;;;;;;;;;;9.25;70.72;101450.78;10423004;28;96705;-84
2023/12/24 12:45:21;;;;;;;;;;;;;;;9.24;69.80;101438.56;10422691;28;96666;-84
2023/12/24 12:50:28;;;;;;;;;;;;;;;8.97;70.43;101440.66;10422486;28;96915;-83
2023/12/24 12:55:34;;;;;;;;;;;;;;;9.04;71.14;101442.31;10420628;28;97174;-85
2023/12/24 13:00:38;;;;;;;;;;;;;;;9.17;70.90;101429.00;10422088;28;96623;-84
2023/12/24 13:05:45;;;;;;;;;;;;;;;9.24;70.74;101433.31;10421533;28;96747;-84
2023/12/24 13:10:49;;;;;;;;;;;;;;;9.46;69.61;101427.69;10421634;28;97239;-84
2023/12/24 13:16:06;;;;;;;;;;;;;;;9.52;69.35;101419.69;10379762;28;96779;-83
2023/12/24 13:21:14;;;;;;;;;;;;;;;9.79;68.57;101413.09;10380082;28;97010;-84
2023/12/24 13:26:24;;;;;;;;;;;;;;;9.58;69.42;101406.47;10413608;22;96708;-84
2023/12/24 13:31:29;;;;;;;;;;;;;;;9.64;68.36;101398.47;10380279;28;97346;-84
2023/12/24 13:36:34;;;;;;;;;;;;;;;9.59;68.67;101392.41;10378854;28;96972;-84
2023/12/24 13:41:37;;;;;;;;;;;;;;;9.71;69.23;101386.09;10379117;28;96792;-84
2023/12/24 13:46:43;;;;;;;;;;;;;;;9.69;69.02;101377.38;10377684;28;97355;-84
2023/12/24 13:51:55;;;;;;;;;;;;;;;9.88;68.22;101376.13;10378854;28;96690;-83
2023/12/24 13:57:03;;;;;;;;;;;;;;;9.60;68.40;101383.66;10378463;28;97063;-84
2023/12/24 14:02:15;;;;;;;;;;;;;;;9.70;68.19;101368.56;10378110;28;96784;-83
2023/12/24 14:07:22;;;;;;;;;;;;;;;9.58;69.23;101366.16;10377213;28;97352;-84
2023/12/24 14:12:37;;;;;;;;;;;;;;;9.46;69.05;101353.25;10378181;28;96749;-84
2023/12/24 14:18:02;;;;;;;;;;;;;;;9.42;68.91;101355.06;10370631;28;97358;-84
2023/12/24 14:23:09;;;;;;;;;;;;;;;9.52;68.84;101358.41;10378499;28;96783;-84
2023/12/24 14:28:22;;;;;;;;;;;;;;;9.35;69.27;101360.44;10376906;28;96864;-84
2023/12/24 14:33:35;;;;;;;;;;;;;;;9.22;69.72;101366.78;10377919;28;96630;-84
2023/12/24 14:38:47;;;;;;;;;;;;;;;9.17;70.50;101353.72;10376615;28;97106;-84
2023/12/24 14:43:52;;;;;;;;;;;;;;;9.09;70.27;101366.09;10376781;28;97722;-84
2023/12/24 14:48:55;;;;;;;;;;;;;;;8.99;70.93;101352.25;10377119;28;96860;-83
2023/12/24 14:54:04;;;;;;;;;;;;;;;8.92;71.12;101355.88;10376698;28;97471;-84
2023/12/24 14:59:10;;;;;;;;;;;;;;;8.98;71.26;101379.38;10377016;28;97245;-84
2023/12/24 15:04:16;;;;;;;;;;;;;;;8.98;70.63;101368.88;10366201;28;96700;-85
2023/12/24 15:09:33;;;;;;;;;;;;;;;8.96;70.74;101360.16;10335113;28;97509;-83
2023/12/24 15:14:38;;;;;;;;;;;;;;;8.95;71.55;101371.56;10375748;28;96788;-85
2023/12/24 15:19:41;;;;;;;;;;;;;;;8.97;71.73;101350.53;10376451;28;97489;-84
2023/12/24 15:24:53;;;;;;;;;;;;;;;9.05;71.87;101349.53;10376075;28;96683;-84
2023/12/24 15:29:59;;;;;;;;;;;;;;;9.03;71.87;101348.69;10375124;28;97298;-84
2023/12/24 15:35:06;;;;;;;;;;;;;;;9.03;72.20;101351.31;10375831;28;97180;-85
2023/12/24 15:40:15;;;;;;;;;;;;;;;8.99;71.99;101344.38;10375695;28;96862;-84
2023/12/24 15:45:32;;;;;;;;;;;;;;;8.94;71.70;101353.22;10375326;28;96651;-85
2023/12/24 15:50:45;;;;;;;;;;;;;;;8.97;72.26;101340.91;10366109;28;97145;-84
2023/12/24 15:55:51;;;;;;;;;;;;;;;9.02;72.59;101346.94;10376150;28;97188;-83
2023/12/24 16:00:57;;;;;;;;;;;;;;;9.00;71.94;101351.34;10382398;28;96709;-83
2023/12/24 16:06:03;;;;;;;;;;;;;;;8.99;72.70;101357.50;10382503;28;97165;-85
2023/12/24 16:11:13;;;;;;;;;;;;;;;8.96;72.30;101364.56;10382121;28;96701;-84
2023/12/24 16:16:16;;;;;;;;;;;;;;;8.98;72.83;101350.50;10381432;28;96615;-84
2023/12/24 16:21:38;;;;;;;;;;;;;;;9.01;72.54;101366.25;10380345;28;96748;-85
2023/12/24 16:26:55;;;;;;;;;;;;;;;8.87;73.13;101351.56;10380467;28;97089;-82
2023/12/24 16:31:58;;;;;;;;;;;;;;;8.90;72.94;101367.28;10381260;28;96991;-84
2023/12/24 16:37:06;;;;;;;;;;;;;;;8.84;73.55;101362.97;10380975;28;96729;-85
2023/12/24 16:42:12;;;;;;;;;;;;;;;8.84;73.16;101381.34;10380392;28;96652;-85
2023/12/24 16:47:15;;;;;;;;;;;;;;;8.80;73.74;101384.94;10380385;28;96592;-84
2023/12/24 16:52:18;;;;;;;;;;;;;;;8.80;73.99;101389.28;10380356;28;96732;-84
2023/12/24 16:57:23;;;;;;;;;;;;;;;8.79;73.50;101374.44;10381400;28;97023;-83
2023/12/24 17:02:29;;;;;;;;;;;;;;;8.69;74.20;101365.81;10350448;28;97306;-85
2023/12/24 17:07:32;;;;;;;;;;;;;;;8.66;75.00;101355.38;10359051;28;97550;-85
2023/12/24 17:12:36;;;;;;;;;;;;;;;8.61;74.86;101354.59;10378682;28;96769;-83
2023/12/24 17:17:39;;;;;;;;;;;;;;;8.58;74.77;101361.63;10379432;28;96650;-83
2023/12/24 17:22:43;;;;;;;;;;;;;;;8.57;74.74;101368.63;10379911;28;97073;-83
2023/12/24 17:27:47;;;;;;;;;;;;;;;8.57;74.70;101389.63;10379419;28;97299;-84
2023/12/24 17:32:50;;;;;;;;;;;;;;;8.58;74.99;101383.50;10379330;28;96662;-84
2023/12/24 17:37:54;;;;;;;;;;;;;;;8.66;74.62;101371.13;10379222;28;96660;-85
2023/12/24 17:42:59;;;;;;;;;;;;;;;8.62;74.55;101379.91;10378869;28;97169;-85
2023/12/24 17:48:02;;;;;;;;;;;;;;;8.59;75.39;101386.97;10379514;28;98074;-84
2023/12/24 17:53:19;;;;;;;;;;;;;;;8.57;75.16;101399.22;10378656;28;96612;-83
2023/12/24 17:58:23;;;;;;;;;;;;;;;8.52;75.47;101388.81;10368372;28;97078;-84
2023/12/24 18:03:26;;;;;;;;;;;;;;;8.50;75.17;101374.84;10366628;28;97630;-84
2023/12/24 18:08:29;;;;;;;;;;;;;;;8.41;75.87;101372.34;10377836;28;96762;-84
2023/12/24 18:13:34;;;;;;;;;;;;;;;8.45;75.07;101379.28;10378007;28;96807;-83
2023/12/24 18:18:39;;;;;;;;;;;;;;;8.48;75.62;101386.25;10376897;28;97321;-85
2023/12/24 18:23:43;;;;;;;;;;;;;;;8.45;75.62;101383.66;10341975;28;98675;-85
2023/12/24 18:28:50;;;;;;;;;;;;;;;8.47;75.29;101398.50;10335619;28;96803;-84
2023/12/24 18:33:54;;;;;;;;;;;;;;;8.49;75.22;101385.34;10337055;28;96998;-85
2023/12/24 18:38:59;;;;;;;;;;;;;;;8.47;75.48;101398.50;10377884;28;96635;-83
2023/12/24 18:44:06;;;;;;;;;;;;;;;8.50;75.27;101395.81;10377436;28;97051;-84
2023/12/24 18:49:11;;;;;;;;;;;;;;;8.45;76.17;101388.91;10376651;28;96614;-84
2023/12/24 18:54:17;;;;;;;;;;;;;;;8.37;75.85;101409.13;10375752;28;97230;-83
2023/12/24 18:59:23;;;;;;;;;;;;;;;8.30;76.14;101407.47;10348593;28;97155;-84
2023/12/24 19:04:27;;;;;;;;;;;;;;;8.32;76.21;101411.81;10335221;28;96667;-84
2023/12/24 19:09:31;;;;;;;;;;;;;;;8.33;75.75;101405.66;10349508;28;96605;-84
2023/12/24 19:14:39;;;;;;;;;;;;;;;8.36;75.60;101415.28;10392664;28;96714;-84
2023/12/24 19:19:43;;;;;;;;;;;;;;;8.35;75.74;101422.25;10415763;28;97371;-84
2023/12/24 19:24:47;;;;;;;;;;;;;;;8.34;76.30;101415.25;10375842;28;96728;-84
2023/12/24 19:29:55;;;;;;;;;;;;;;;8.33;76.54;101416.16;10335221;28;96651;-84
2023/12/24 19:34:59;;;;;;;;;;;;;;;8.27;76.66;101416.25;10341385;28;96577;-84
2023/12/24 19:40:05;;;;;;;;;;;;;;;8.24;76.76;101420.66;10342349;28;97383;-83
2023/12/24 19:45:14;;;;;;;;;;;;;;;8.25;76.78;101414.50;10339957;28;96594;-84
2023/12/24 19:50:18;;;;;;;;;;;;;;;8.21;76.36;101424.16;10341422;28;97421;-84
2023/12/24 19:55:22;;;;;;;;;;;;;;;8.19;76.37;101425.94;10329334;28;97219;-84
2023/12/24 20:00:29;;;;;;;;;;;;;;;8.19;76.75;101420.69;10313586;28;96724;-84
2023/12/24 20:05:34;;;;;;;;;;;;;;;8.20;76.69;101419.81;10340124;28;97294;-83
2023/12/24 20:10:38;;;;;;;;;;;;;;;8.19;76.69;101422.44;10299734;28;97378;-84
2023/12/24 20:15:46;;;;;;;;;;;;;;;8.19;77.04;101439.03;10338617;28;97023;-83
2023/12/24 20:20:50;;;;;;;;;;;;;;;8.16;77.11;101422.47;10329050;28;96718;-84
2023/12/24 20:25:55;;;;;;;;;;;;;;;8.14;76.71;101412.00;10307172;28;96856;-83
2023/12/24 20:31:02;;;;;;;;;;;;;;;8.16;77.10;101430.34;10340003;28;96854;-84
2023/12/24 20:36:06;;;;;;;;;;;;;;;8.12;77.40;101432.13;10366650;28;96719;-84
2023/12/24 20:41:10;;;;;;;;;;;;;;;8.12;77.00;101424.25;10380883;28;96645;-84
2023/12/24 20:46:19;;;;;;;;;;;;;;;8.15;77.41;101436.47;10379530;28;96685;-84
2023/12/24 20:51:24;;;;;;;;;;;;;;;8.15;77.11;101429.47;10381111;28;97341;-84
2023/12/24 20:56:28;;;;;;;;;;;;;;;8.14;76.79;101425.13;10380512;28;97352;-84
2023/12/24 21:01:37;;;;;;;;;;;;;;;8.14;76.86;101439.97;10380379;28;96962;-84
2023/12/24 21:06:46;;;;;;;;;;;;;;;8.09;77.50;101423.44;10379628;28;96864;-84
2023/12/24 21:11:49;;;;;;;;;;;;;;;8.10;77.30;101433.91;10381027;28;97298;-84
2023/12/24 21:16:57;;;;;;;;;;;;;;;8.06;77.50;101428.72;10379735;28;97787;-83
2023/12/24 21:22:01;;;;;;;;;;;;;;;8.03;77.25;101429.59;10358379;28;96702;-85
2023/12/24 21:27:06;;;;;;;;;;;;;;;8.04;77.67;101431.34;10364572;28;97412;-85
2023/12/24 21:32:13;;;;;;;;;;;;;;;8.06;77.74;101432.22;10379677;28;96618;-84
2023/12/24 21:37:18;;;;;;;;;;;;;;;8.08;77.62;101445.31;10378980;28;97623;-85
2023/12/24 21:42:22;;;;;;;;;;;;;;;8.08;77.34;101434.81;10379585;28;97210;-84
2023/12/24 21:47:28;;;;;;;;;;;;;;;8.04;77.71;101430.47;10378509;28;97280;-85
2023/12/24 21:52:33;;;;;;;;;;;;;;;8.06;77.28;101433.94;10378956;28;96952;-85
2023/12/24 21:57:37;;;;;;;;;;;;;;;7.98;77.89;101423.53;10378673;28;96577;-83
2023/12/24 22:02:44;;;;;;;;;;;;;;;7.98;77.83;101420.91;10378650;28;97076;-84
2023/12/24 22:07:49;;;;;;;;;;;;;;;7.99;77.45;101420.06;10409098;28;97433;-84
2023/12/24 22:12:57;;;;;;;;;;;;;;;8.05;77.91;101425.22;10419640;28;97314;-84
2023/12/24 22:18:06;;;;;;;;;;;;;;;8.01;77.18;101434.00;10390967;28;97212;-84
2023/12/24 22:23:11;;;;;;;;;;;;;;;7.99;77.54;101430.53;10377774;28;96625;-83
2023/12/24 22:28:16;;;;;;;;;;;;;;;8.02;78.03;101424.38;10377485;28;96710;-84
2023/12/24 22:33:23;;;;;;;;;;;;;;;7.94;77.44;101440.19;10377370;28;96815;-85
2023/12/24 22:38:27;;;;;;;;;;;;;;;7.93;77.43;101439.31;10376947;28;97365;-85
2023/12/24 22:43:31;;;;;;;;;;;;;;;7.95;77.88;101436.69;10377150;28;96633;-83
2023/12/24 22:48:41;;;;;;;;;;;;;;;7.93;77.61;101433.19;10376913;28;97124;-84
2023/12/24 22:53:46;;;;;;;;;;;;;;;7.88;77.72;101446.38;10377413;28;96691;-84
2023/12/24 22:58:50;;;;;;;;;;;;;;;7.92;77.63;101447.22;10377160;28;97203;-84
2023/12/24 23:03:57;;;;;;;;;;;;;;;7.90;77.76;101449.84;10393715;28;96561;-84
2023/12/24 23:09:01;;;;;;;;;;;;;;;7.90;77.82;101454.22;10394295;27;96848;-84
2023/12/24 23:14:06;;;;;;;;;;;;;;;7.87;77.81;101446.38;10384029;28;97106;-84
2023/12/24 23:19:12;;;;;;;;;;;;;;;7.86;77.90;101452.50;10383799;28;96688;-84
2023/12/24 23:24:16;;;;;;;;;;;;;;;7.84;77.87;101452.50;10383127;28;96820;-84
2023/12/24 23:29:20;;;;;;;;;;;;;;;7.83;77.87;101449.91;10383118;28;96764;-85
2023/12/24 23:34:27;;;;;;;;;;;;;;;7.82;78.09;101448.19;10383042;28;96689;-85
2023/12/24 23:39:34;;;;;;;;;;;;;;;7.81;78.30;101441.19;10378083;28;97641;-84
2023/12/24 23:44:41;;;;;;;;;;;;;;;7.80;78.63;101452.56;10378134;28;96797;-85
2023/12/24 23:49:50;;;;;;;;;;;;;;;7.79;78.50;101445.56;10377810;28;96788;-84
2023/12/24 23:54:54;;;;;;;;;;;;;;;7.78;78.15;101443.84;10377206;28;96652;-83
